sensor_id;sensor_type;location;lat;lon;timestamp;P1;durP1;ratioP1;P2;durP2;ratioP2
39880;SDS011;25554;44.954;10.068;2022-11-15T00:02:21;40.40;;;19.58;;
39880;SDS011;25554;44.954;10.068;2022-11-15T00:05:06;40.03;;;19.50;;
39880;SDS011;25554;44.954;10.068;2022-11-15T00:07:51;43.78;;;20.42;;
39880;SDS011;25554;44.954;10.068;2022-11-15T00:10:37;42.08;;;19.70;;
39880;SDS011;25554;44.954;10.068;2022-11-15T00:13:22;40.92;;;19.67;;
39880;SDS011;25554;44.954;10.068;2022-11-15T00:16:08;39.90;;;20.45;;
39880;SDS011;25554;44.954;10.068;2022-11-15T00:18:54;40.00;;;20.50;;
39880;SDS011;25554;44.954;10.068;2022-11-15T00:21:39;41.50;;;20.58;;
39880;SDS011;25554;44.954;10.068;2022-11-15T00:24:24;44.35;;;19.50;;
39880;SDS011;25554;44.954;10.068;2022-11-15T00:27:09;40.40;;;20.27;;
39880;SDS011;25554;44.954;10.068;2022-11-15T00:29:54;39.92;;;19.92;;
39880;SDS011;25554;44.954;10.068;2022-11-15T00:32:39;40.90;;;19.08;;
39880;SDS011;25554;44.954;10.068;2022-11-15T00:35:24;40.90;;;19.48;;
39880;SDS011;25554;44.954;10.068;2022-11-15T00:38:09;39.40;;;18.55;;
39880;SDS011;25554;44.954;10.068;2022-11-15T00:40:54;35.45;;;18.33;;
39880;SDS011;25554;44.954;10.068;2022-11-15T00:43:39;33.70;;;17.77;;
39880;SDS011;25554;44.954;10.068;2022-11-15T00:46:26;31.92;;;17.33;;
39880;SDS011;25554;44.954;10.068;2022-11-15T00:49:11;32.85;;;16.38;;
39880;SDS011;25554;44.954;10.068;2022-11-15T00:51:56;34.25;;;16.63;;
39880;SDS011;25554;44.954;10.068;2022-11-15T00:54:40;33.00;;;16.30;;
39880;SDS011;25554;44.954;10.068;2022-11-15T00:57:25;30.88;;;16.33;;
39880;SDS011;25554;44.954;10.068;2022-11-15T01:00:11;31.55;;;15.75;;
39880;SDS011;25554;44.954;10.068;2022-11-15T01:02:56;27.98;;;15.82;;
39880;SDS011;25554;44.954;10.068;2022-11-15T01:05:41;31.63;;;16.13;;
39880;SDS011;25554;44.954;10.068;2022-11-15T01:08:26;30.75;;;15.40;;
39880;SDS011;25554;44.954;10.068;2022-11-15T01:11:12;28.52;;;15.68;;
39880;SDS011;25554;44.954;10.068;2022-11-15T01:13:57;29.90;;;15.57;;
39880;SDS011;25554;44.954;10.068;2022-11-15T01:16:42;30.83;;;15.40;;
39880;SDS011;25554;44.954;10.068;2022-11-15T01:19:27;28.92;;;15.50;;
39880;SDS011;25554;44.954;10.068;2022-11-15T01:22:11;30.60;;;15.93;;
39880;SDS011;25554;44.954;10.068;2022-11-15T01:24:57;33.85;;;17.00;;
39880;SDS011;25554;44.954;10.068;2022-11-15T01:27:42;31.25;;;16.73;;
39880;SDS011;25554;44.954;10.068;2022-11-15T01:30:27;30.73;;;16.60;;
39880;SDS011;25554;44.954;10.068;2022-11-15T01:33:11;29.20;;;15.18;;
39880;SDS011;25554;44.954;10.068;2022-11-15T01:35:56;30.15;;;15.88;;
39880;SDS011;25554;44.954;10.068;2022-11-15T01:38:41;30.23;;;16.63;;
39880;SDS011;25554;44.954;10.068;2022-11-15T01:41:30;32.55;;;16.63;;
39880;SDS011;25554;44.954;10.068;2022-11-15T01:47:19;35.00;;;17.30;;
39880;SDS011;25554;44.954;10.068;2022-11-15T01:50:09;31.85;;;15.95;;
39880;SDS011;25554;44.954;10.068;2022-11-15T01:52:55;36.17;;;17.27;;
39880;SDS011;25554;44.954;10.068;2022-11-15T01:55:40;34.03;;;17.65;;
39880;SDS011;25554;44.954;10.068;2022-11-15T01:58:25;31.95;;;15.65;;
39880;SDS011;25554;44.954;10.068;2022-11-15T02:01:10;30.95;;;16.55;;
39880;SDS011;25554;44.954;10.068;2022-11-15T02:04:43;34.15;;;15.98;;
39880;SDS011;25554;44.954;10.068;2022-11-15T02:07:03;29.40;;;15.57;;
39880;SDS011;25554;44.954;10.068;2022-11-15T02:09:49;33.53;;;17.42;;
39880;SDS011;25554;44.954;10.068;2022-11-15T02:12:34;28.20;;;15.20;;
39880;SDS011;25554;44.954;10.068;2022-11-15T02:15:20;31.60;;;16.63;;
39880;SDS011;25554;44.954;10.068;2022-11-15T02:18:08;31.98;;;16.55;;
39880;SDS011;25554;44.954;10.068;2022-11-15T02:29:14;28.02;;;14.90;;
39880;SDS011;25554;44.954;10.068;2022-11-15T02:32:09;32.65;;;15.90;;
39880;SDS011;25554;44.954;10.068;2022-11-15T02:35:44;33.55;;;16.08;;
39880;SDS011;25554;44.954;10.068;2022-11-15T02:41:09;31.80;;;16.65;;
39880;SDS011;25554;44.954;10.068;2022-11-15T02:44:29;29.20;;;15.05;;
39880;SDS011;25554;44.954;10.068;2022-11-15T02:47:07;31.75;;;15.68;;
39880;SDS011;25554;44.954;10.068;2022-11-15T02:49:59;26.08;;;13.73;;
39880;SDS011;25554;44.954;10.068;2022-11-15T02:52:45;27.65;;;15.05;;
39880;SDS011;25554;44.954;10.068;2022-11-15T02:55:34;26.85;;;14.48;;
39880;SDS011;25554;44.954;10.068;2022-11-15T03:07:11;22.45;;;13.23;;
39880;SDS011;25554;44.954;10.068;2022-11-15T03:12:55;26.27;;;12.55;;
39880;SDS011;25554;44.954;10.068;2022-11-15T03:15:43;25.92;;;13.65;;
39880;SDS011;25554;44.954;10.068;2022-11-15T03:18:38;23.95;;;13.60;;
39880;SDS011;25554;44.954;10.068;2022-11-15T03:21:26;26.83;;;14.02;;
39880;SDS011;25554;44.954;10.068;2022-11-15T03:24:13;22.05;;;12.48;;
39880;SDS011;25554;44.954;10.068;2022-11-15T03:26:59;23.60;;;13.45;;
39880;SDS011;25554;44.954;10.068;2022-11-15T03:29:46;21.52;;;12.45;;
39880;SDS011;25554;44.954;10.068;2022-11-15T03:32:34;22.58;;;12.90;;
39880;SDS011;25554;44.954;10.068;2022-11-15T03:35:21;19.65;;;11.85;;
39880;SDS011;25554;44.954;10.068;2022-11-15T03:41:08;24.42;;;13.50;;
39880;SDS011;25554;44.954;10.068;2022-11-15T03:43:57;22.88;;;13.32;;
39880;SDS011;25554;44.954;10.068;2022-11-15T03:46:50;25.25;;;13.43;;
39880;SDS011;25554;44.954;10.068;2022-11-15T03:49:40;25.70;;;13.02;;
39880;SDS011;25554;44.954;10.068;2022-11-15T03:52:29;23.50;;;12.80;;
39880;SDS011;25554;44.954;10.068;2022-11-15T03:55:19;29.20;;;13.85;;
39880;SDS011;25554;44.954;10.068;2022-11-15T03:58:05;23.70;;;13.77;;
39880;SDS011;25554;44.954;10.068;2022-11-15T04:00:50;24.25;;;13.13;;
39880;SDS011;25554;44.954;10.068;2022-11-15T04:03:35;22.30;;;13.25;;
39880;SDS011;25554;44.954;10.068;2022-11-15T04:06:20;25.38;;;13.65;;
39880;SDS011;25554;44.954;10.068;2022-11-15T04:09:05;23.92;;;13.25;;
39880;SDS011;25554;44.954;10.068;2022-11-15T04:11:50;25.08;;;13.82;;
39880;SDS011;25554;44.954;10.068;2022-11-15T04:14:35;20.48;;;13.18;;
39880;SDS011;25554;44.954;10.068;2022-11-15T04:17:20;26.08;;;13.00;;
39880;SDS011;25554;44.954;10.068;2022-11-15T04:20:06;27.00;;;13.63;;
39880;SDS011;25554;44.954;10.068;2022-11-15T04:23:13;26.23;;;13.90;;
39880;SDS011;25554;44.954;10.068;2022-11-15T04:26:18;29.40;;;14.27;;
39880;SDS011;25554;44.954;10.068;2022-11-15T04:29:04;26.15;;;15.13;;
39880;SDS011;25554;44.954;10.068;2022-11-15T04:32:08;25.98;;;13.48;;
39880;SDS011;25554;44.954;10.068;2022-11-15T04:34:53;25.25;;;13.68;;
39880;SDS011;25554;44.954;10.068;2022-11-15T04:37:37;26.92;;;14.70;;
39880;SDS011;25554;44.954;10.068;2022-11-15T04:40:22;24.92;;;13.90;;
39880;SDS011;25554;44.954;10.068;2022-11-15T04:43:08;25.05;;;13.07;;
39880;SDS011;25554;44.954;10.068;2022-11-15T04:45:53;32.72;;;15.85;;
39880;SDS011;25554;44.954;10.068;2022-11-15T04:48:38;29.33;;;15.05;;
39880;SDS011;25554;44.954;10.068;2022-11-15T04:51:22;26.88;;;14.25;;
39880;SDS011;25554;44.954;10.068;2022-11-15T04:54:07;25.27;;;15.18;;
39880;SDS011;25554;44.954;10.068;2022-11-15T04:56:52;26.25;;;13.25;;
39880;SDS011;25554;44.954;10.068;2022-11-15T04:59:37;25.75;;;14.43;;
39880;SDS011;25554;44.954;10.068;2022-11-15T05:02:22;27.75;;;14.45;;
39880;SDS011;25554;44.954;10.068;2022-11-15T05:05:07;27.05;;;14.48;;
39880;SDS011;25554;44.954;10.068;2022-11-15T05:07:52;24.83;;;13.65;;
39880;SDS011;25554;44.954;10.068;2022-11-15T05:10:37;26.15;;;13.63;;
39880;SDS011;25554;44.954;10.068;2022-11-15T05:13:22;23.50;;;14.05;;
39880;SDS011;25554;44.954;10.068;2022-11-15T05:16:07;24.50;;;13.73;;
39880;SDS011;25554;44.954;10.068;2022-11-15T05:18:53;25.23;;;14.55;;
39880;SDS011;25554;44.954;10.068;2022-11-15T05:21:38;28.15;;;14.60;;
39880;SDS011;25554;44.954;10.068;2022-11-15T05:24:24;26.63;;;14.13;;
39880;SDS011;25554;44.954;10.068;2022-11-15T05:27:09;27.00;;;14.15;;
39880;SDS011;25554;44.954;10.068;2022-11-15T05:29:54;27.70;;;14.13;;
39880;SDS011;25554;44.954;10.068;2022-11-15T05:32:39;26.70;;;13.85;;
39880;SDS011;25554;44.954;10.068;2022-11-15T05:35:28;26.83;;;14.52;;
39880;SDS011;25554;44.954;10.068;2022-11-15T05:38:15;25.13;;;14.40;;
39880;SDS011;25554;44.954;10.068;2022-11-15T05:41:00;28.35;;;14.43;;
39880;SDS011;25554;44.954;10.068;2022-11-15T05:43:46;26.85;;;13.88;;
39880;SDS011;25554;44.954;10.068;2022-11-15T05:46:33;25.63;;;13.63;;
39880;SDS011;25554;44.954;10.068;2022-11-15T05:49:20;25.20;;;14.57;;
39880;SDS011;25554;44.954;10.068;2022-11-15T05:52:07;26.67;;;14.00;;
39880;SDS011;25554;44.954;10.068;2022-11-15T05:54:53;31.17;;;15.85;;
39880;SDS011;25554;44.954;10.068;2022-11-15T05:57:39;28.33;;;14.95;;
39880;SDS011;25554;44.954;10.068;2022-11-15T06:00:24;29.40;;;15.98;;
39880;SDS011;25554;44.954;10.068;2022-11-15T06:03:09;29.98;;;16.42;;
39880;SDS011;25554;44.954;10.068;2022-11-15T06:05:55;30.48;;;16.27;;
39880;SDS011;25554;44.954;10.068;2022-11-15T06:08:40;27.80;;;14.98;;
39880;SDS011;25554;44.954;10.068;2022-11-15T06:11:25;26.20;;;14.85;;
39880;SDS011;25554;44.954;10.068;2022-11-15T06:14:10;25.52;;;14.23;;
39880;SDS011;25554;44.954;10.068;2022-11-15T06:16:55;26.88;;;14.35;;
39880;SDS011;25554;44.954;10.068;2022-11-15T06:19:40;30.33;;;15.05;;
39880;SDS011;25554;44.954;10.068;2022-11-15T06:22:25;28.50;;;15.77;;
39880;SDS011;25554;44.954;10.068;2022-11-15T06:25:10;30.33;;;14.95;;
39880;SDS011;25554;44.954;10.068;2022-11-15T06:27:56;33.20;;;16.85;;
39880;SDS011;25554;44.954;10.068;2022-11-15T06:30:41;28.85;;;14.88;;
39880;SDS011;25554;44.954;10.068;2022-11-15T06:33:26;27.50;;;15.52;;
39880;SDS011;25554;44.954;10.068;2022-11-15T06:36:12;51.33;;;27.65;;
39880;SDS011;25554;44.954;10.068;2022-11-15T06:39:03;33.80;;;18.73;;
39880;SDS011;25554;44.954;10.068;2022-11-15T06:41:48;26.42;;;16.00;;
39880;SDS011;25554;44.954;10.068;2022-11-15T06:44:34;24.88;;;14.15;;
39880;SDS011;25554;44.954;10.068;2022-11-15T06:47:19;27.13;;;14.10;;
39880;SDS011;25554;44.954;10.068;2022-11-15T06:50:04;28.55;;;15.77;;
39880;SDS011;25554;44.954;10.068;2022-11-15T06:52:49;26.65;;;14.52;;
39880;SDS011;25554;44.954;10.068;2022-11-15T06:55:34;28.48;;;14.80;;
39880;SDS011;25554;44.954;10.068;2022-11-15T06:58:20;29.70;;;15.50;;
39880;SDS011;25554;44.954;10.068;2022-11-15T07:01:06;29.67;;;15.35;;
39880;SDS011;25554;44.954;10.068;2022-11-15T07:03:52;26.20;;;14.93;;
39880;SDS011;25554;44.954;10.068;2022-11-15T07:06:36;29.38;;;14.93;;
39880;SDS011;25554;44.954;10.068;2022-11-15T07:09:21;27.92;;;14.63;;
39880;SDS011;25554;44.954;10.068;2022-11-15T07:12:06;28.55;;;14.95;;
39880;SDS011;25554;44.954;10.068;2022-11-15T07:14:51;26.67;;;14.80;;
39880;SDS011;25554;44.954;10.068;2022-11-15T07:17:36;23.15;;;13.48;;
39880;SDS011;25554;44.954;10.068;2022-11-15T07:20:21;25.35;;;15.50;;
39880;SDS011;25554;44.954;10.068;2022-11-15T07:23:06;29.98;;;14.90;;
39880;SDS011;25554;44.954;10.068;2022-11-15T07:25:50;27.02;;;14.75;;
39880;SDS011;25554;44.954;10.068;2022-11-15T07:28:35;29.83;;;15.38;;
39880;SDS011;25554;44.954;10.068;2022-11-15T07:31:20;26.25;;;15.60;;
39880;SDS011;25554;44.954;10.068;2022-11-15T07:34:06;26.70;;;15.23;;
39880;SDS011;25554;44.954;10.068;2022-11-15T07:36:51;29.02;;;15.13;;
39880;SDS011;25554;44.954;10.068;2022-11-15T07:39:36;29.05;;;16.10;;
39880;SDS011;25554;44.954;10.068;2022-11-15T07:42:21;25.98;;;14.80;;
39880;SDS011;25554;44.954;10.068;2022-11-15T07:45:25;28.35;;;15.38;;
39880;SDS011;25554;44.954;10.068;2022-11-15T07:48:10;26.15;;;13.75;;
39880;SDS011;25554;44.954;10.068;2022-11-15T07:50:56;27.58;;;15.98;;
39880;SDS011;25554;44.954;10.068;2022-11-15T07:53:41;32.10;;;15.85;;
39880;SDS011;25554;44.954;10.068;2022-11-15T07:56:27;24.75;;;13.75;;
39880;SDS011;25554;44.954;10.068;2022-11-15T07:59:12;26.23;;;15.32;;
39880;SDS011;25554;44.954;10.068;2022-11-15T08:01:56;27.55;;;14.80;;
39880;SDS011;25554;44.954;10.068;2022-11-15T08:04:41;42.65;;;20.77;;
39880;SDS011;25554;44.954;10.068;2022-11-15T08:07:28;47.75;;;22.05;;
39880;SDS011;25554;44.954;10.068;2022-11-15T08:10:14;30.23;;;16.85;;
39880;SDS011;25554;44.954;10.068;2022-11-15T08:13:04;28.58;;;16.42;;
39880;SDS011;25554;44.954;10.068;2022-11-15T08:15:49;32.28;;;17.17;;
39880;SDS011;25554;44.954;10.068;2022-11-15T08:18:34;25.17;;;14.10;;
39880;SDS011;25554;44.954;10.068;2022-11-15T08:21:20;24.83;;;13.95;;
39880;SDS011;25554;44.954;10.068;2022-11-15T08:24:05;26.02;;;13.40;;
39880;SDS011;25554;44.954;10.068;2022-11-15T08:26:50;26.25;;;13.48;;
39880;SDS011;25554;44.954;10.068;2022-11-15T08:29:35;33.28;;;16.02;;
39880;SDS011;25554;44.954;10.068;2022-11-15T08:32:20;30.73;;;15.65;;
39880;SDS011;25554;44.954;10.068;2022-11-15T08:35:05;26.60;;;14.70;;
39880;SDS011;25554;44.954;10.068;2022-11-15T08:37:52;29.95;;;14.93;;
39880;SDS011;25554;44.954;10.068;2022-11-15T08:40:37;32.85;;;16.63;;
39880;SDS011;25554;44.954;10.068;2022-11-15T08:43:22;30.73;;;16.35;;
39880;SDS011;25554;44.954;10.068;2022-11-15T08:46:08;31.15;;;15.98;;
39880;SDS011;25554;44.954;10.068;2022-11-15T08:48:56;31.45;;;15.48;;
39880;SDS011;25554;44.954;10.068;2022-11-15T08:51:41;26.20;;;14.27;;
39880;SDS011;25554;44.954;10.068;2022-11-15T08:54:26;31.67;;;15.77;;
39880;SDS011;25554;44.954;10.068;2022-11-15T08:57:11;37.35;;;16.95;;
39880;SDS011;25554;44.954;10.068;2022-11-15T08:59:56;33.22;;;16.48;;
39880;SDS011;25554;44.954;10.068;2022-11-15T09:02:41;41.70;;;20.73;;
39880;SDS011;25554;44.954;10.068;2022-11-15T09:05:26;33.88;;;18.27;;
39880;SDS011;25554;44.954;10.068;2022-11-15T09:08:11;37.70;;;19.42;;
39880;SDS011;25554;44.954;10.068;2022-11-15T09:10:57;37.33;;;19.63;;
39880;SDS011;25554;44.954;10.068;2022-11-15T09:13:42;29.73;;;16.80;;
39880;SDS011;25554;44.954;10.068;2022-11-15T09:16:27;32.65;;;17.70;;
39880;SDS011;25554;44.954;10.068;2022-11-15T09:19:12;34.30;;;18.27;;
39880;SDS011;25554;44.954;10.068;2022-11-15T09:21:58;36.28;;;19.48;;
39880;SDS011;25554;44.954;10.068;2022-11-15T09:24:43;34.63;;;19.08;;
39880;SDS011;25554;44.954;10.068;2022-11-15T09:27:29;39.25;;;19.67;;
39880;SDS011;25554;44.954;10.068;2022-11-15T09:30:14;35.22;;;18.13;;
39880;SDS011;25554;44.954;10.068;2022-11-15T09:33:05;36.38;;;17.80;;
39880;SDS011;25554;44.954;10.068;2022-11-15T09:35:51;39.08;;;19.52;;
39880;SDS011;25554;44.954;10.068;2022-11-15T09:38:36;37.28;;;19.27;;
39880;SDS011;25554;44.954;10.068;2022-11-15T09:50:10;39.75;;;19.17;;
39880;SDS011;25554;44.954;10.068;2022-11-15T09:52:37;39.38;;;19.30;;
39880;SDS011;25554;44.954;10.068;2022-11-15T09:55:07;36.25;;;17.73;;
39880;SDS011;25554;44.954;10.068;2022-11-15T09:58:19;35.88;;;18.65;;
39880;SDS011;25554;44.954;10.068;2022-11-15T10:00:30;33.58;;;18.70;;
39880;SDS011;25554;44.954;10.068;2022-11-15T10:03:12;33.83;;;18.10;;
39880;SDS011;25554;44.954;10.068;2022-11-15T10:05:45;39.08;;;19.27;;
39880;SDS011;25554;44.954;10.068;2022-11-15T10:08:22;36.42;;;18.40;;
39880;SDS011;25554;44.954;10.068;2022-11-15T10:10:53;39.38;;;18.70;;
39880;SDS011;25554;44.954;10.068;2022-11-15T10:13:25;38.50;;;19.50;;
39880;SDS011;25554;44.954;10.068;2022-11-15T10:15:53;38.95;;;21.00;;
39880;SDS011;25554;44.954;10.068;2022-11-15T10:23:14;35.88;;;18.23;;
39880;SDS011;25554;44.954;10.068;2022-11-15T10:25:40;38.63;;;19.83;;
39880;SDS011;25554;44.954;10.068;2022-11-15T10:30:35;41.35;;;20.50;;
39880;SDS011;25554;44.954;10.068;2022-11-15T10:35:47;39.97;;;20.63;;
39880;SDS011;25554;44.954;10.068;2022-11-15T10:40:40;36.20;;;18.20;;
39880;SDS011;25554;44.954;10.068;2022-11-15T10:50:38;42.38;;;20.45;;
39880;SDS011;25554;44.954;10.068;2022-11-15T10:53:11;39.90;;;19.75;;
39880;SDS011;25554;44.954;10.068;2022-11-15T10:55:41;38.35;;;20.35;;
39880;SDS011;25554;44.954;10.068;2022-11-15T10:58:30;37.38;;;20.20;;
39880;SDS011;25554;44.954;10.068;2022-11-15T11:01:09;38.15;;;19.83;;
39880;SDS011;25554;44.954;10.068;2022-11-15T11:03:36;40.47;;;20.85;;
39880;SDS011;25554;44.954;10.068;2022-11-15T11:06:14;41.72;;;21.80;;
39880;SDS011;25554;44.954;10.068;2022-11-15T11:08:58;40.38;;;20.38;;
39880;SDS011;25554;44.954;10.068;2022-11-15T11:11:43;37.33;;;18.95;;
39880;SDS011;25554;44.954;10.068;2022-11-15T11:16:48;38.80;;;20.55;;
39880;SDS011;25554;44.954;10.068;2022-11-15T11:21:56;38.85;;;19.58;;
39880;SDS011;25554;44.954;10.068;2022-11-15T11:29:26;39.72;;;21.52;;
39880;SDS011;25554;44.954;10.068;2022-11-15T11:34:44;42.55;;;20.88;;
39880;SDS011;25554;44.954;10.068;2022-11-15T11:47:39;41.53;;;20.98;;
39880;SDS011;25554;44.954;10.068;2022-11-15T11:50:18;45.20;;;22.80;;
39880;SDS011;25554;44.954;10.068;2022-11-15T11:52:54;45.70;;;21.83;;
39880;SDS011;25554;44.954;10.068;2022-11-15T11:55:26;44.17;;;21.60;;
39880;SDS011;25554;44.954;10.068;2022-11-15T12:00:45;45.58;;;22.00;;
39880;SDS011;25554;44.954;10.068;2022-11-15T12:03:21;47.20;;;23.33;;
39880;SDS011;25554;44.954;10.068;2022-11-15T12:05:56;56.25;;;25.15;;
39880;SDS011;25554;44.954;10.068;2022-11-15T12:11:47;44.65;;;23.65;;
39880;SDS011;25554;44.954;10.068;2022-11-15T12:14:27;49.42;;;23.38;;
39880;SDS011;25554;44.954;10.068;2022-11-15T12:16:56;49.40;;;24.95;;
39880;SDS011;25554;44.954;10.068;2022-11-15T12:19:23;46.08;;;22.33;;
39880;SDS011;25554;44.954;10.068;2022-11-15T12:26:51;49.00;;;23.45;;
39880;SDS011;25554;44.954;10.068;2022-11-15T12:29:20;48.08;;;24.30;;
39880;SDS011;25554;44.954;10.068;2022-11-15T12:31:50;46.42;;;24.20;;
39880;SDS011;25554;44.954;10.068;2022-11-15T12:36:48;44.72;;;23.58;;
39880;SDS011;25554;44.954;10.068;2022-11-15T12:39:16;45.78;;;23.58;;
39880;SDS011;25554;44.954;10.068;2022-11-15T13:02:21;47.60;;;23.75;;
39880;SDS011;25554;44.954;10.068;2022-11-15T13:04:53;47.10;;;22.63;;
39880;SDS011;25554;44.954;10.068;2022-11-15T13:17:39;49.08;;;25.10;;
39880;SDS011;25554;44.954;10.068;2022-11-15T13:27:47;46.08;;;24.33;;
39880;SDS011;25554;44.954;10.068;2022-11-15T13:30:16;46.72;;;25.58;;
39880;SDS011;25554;44.954;10.068;2022-11-15T13:32:45;49.08;;;24.58;;
39880;SDS011;25554;44.954;10.068;2022-11-15T13:37:57;42.40;;;23.48;;
39880;SDS011;25554;44.954;10.068;2022-11-15T13:40:33;44.08;;;22.85;;
39880;SDS011;25554;44.954;10.068;2022-11-15T13:43:47;44.15;;;24.45;;
39880;SDS011;25554;44.954;10.068;2022-11-15T13:48:33;41.08;;;22.17;;
39880;SDS011;25554;44.954;10.068;2022-11-15T13:51:00;42.88;;;24.02;;
39880;SDS011;25554;44.954;10.068;2022-11-15T13:53:27;43.03;;;23.70;;
39880;SDS011;25554;44.954;10.068;2022-11-15T13:55:54;42.78;;;22.77;;
39880;SDS011;25554;44.954;10.068;2022-11-15T13:58:21;44.17;;;24.20;;
39880;SDS011;25554;44.954;10.068;2022-11-15T14:03:30;42.63;;;22.75;;
39880;SDS011;25554;44.954;10.068;2022-11-15T14:08:34;45.05;;;22.02;;
39880;SDS011;25554;44.954;10.068;2022-11-15T14:13:59;42.75;;;22.60;;
39880;SDS011;25554;44.954;10.068;2022-11-15T14:19:05;49.08;;;24.55;;
39880;SDS011;25554;44.954;10.068;2022-11-15T14:21:35;43.25;;;22.83;;
39880;SDS011;25554;44.954;10.068;2022-11-15T14:24:15;41.80;;;22.70;;
39880;SDS011;25554;44.954;10.068;2022-11-15T14:26:46;44.10;;;23.80;;
39880;SDS011;25554;44.954;10.068;2022-11-15T14:34:43;43.53;;;22.40;;
39880;SDS011;25554;44.954;10.068;2022-11-15T14:37:16;39.92;;;20.98;;
39880;SDS011;25554;44.954;10.068;2022-11-15T14:39:46;41.83;;;21.63;;
39880;SDS011;25554;44.954;10.068;2022-11-15T14:44:39;38.70;;;21.63;;
39880;SDS011;25554;44.954;10.068;2022-11-15T14:49:31;42.15;;;22.25;;
39880;SDS011;25554;44.954;10.068;2022-11-15T14:51:58;44.33;;;23.38;;
39880;SDS011;25554;44.954;10.068;2022-11-15T14:54:24;40.00;;;21.80;;
39880;SDS011;25554;44.954;10.068;2022-11-15T14:56:51;42.80;;;23.60;;
39880;SDS011;25554;44.954;10.068;2022-11-15T15:01:44;44.45;;;22.40;;
39880;SDS011;25554;44.954;10.068;2022-11-15T15:06:37;38.05;;;20.00;;
39880;SDS011;25554;44.954;10.068;2022-11-15T15:09:04;39.92;;;20.83;;
39880;SDS011;25554;44.954;10.068;2022-11-15T15:13:57;43.72;;;22.88;;
39880;SDS011;25554;44.954;10.068;2022-11-15T15:16:26;40.25;;;21.58;;
39880;SDS011;25554;44.954;10.068;2022-11-15T15:18:53;38.33;;;22.05;;
39880;SDS011;25554;44.954;10.068;2022-11-15T15:21:23;39.15;;;20.73;;
39880;SDS011;25554;44.954;10.068;2022-11-15T15:23:51;39.80;;;20.50;;
39880;SDS011;25554;44.954;10.068;2022-11-15T15:26:19;45.97;;;22.25;;
39880;SDS011;25554;44.954;10.068;2022-11-15T15:28:46;36.40;;;20.95;;
39880;SDS011;25554;44.954;10.068;2022-11-15T15:31:14;40.22;;;21.08;;
39880;SDS011;25554;44.954;10.068;2022-11-15T15:33:41;38.05;;;21.67;;
39880;SDS011;25554;44.954;10.068;2022-11-15T15:38:33;38.17;;;21.38;;
39880;SDS011;25554;44.954;10.068;2022-11-15T15:45:54;37.65;;;19.17;;
39880;SDS011;25554;44.954;10.068;2022-11-15T15:50:47;41.67;;;20.85;;
39880;SDS011;25554;44.954;10.068;2022-11-15T15:53:14;43.17;;;20.88;;
39880;SDS011;25554;44.954;10.068;2022-11-15T15:55:40;41.70;;;21.25;;
39880;SDS011;25554;44.954;10.068;2022-11-15T16:00:33;45.95;;;22.00;;
39880;SDS011;25554;44.954;10.068;2022-11-15T16:05:26;39.13;;;20.70;;
39880;SDS011;25554;44.954;10.068;2022-11-15T16:10:20;40.28;;;20.50;;
39880;SDS011;25554;44.954;10.068;2022-11-15T16:12:47;39.95;;;21.52;;
39880;SDS011;25554;44.954;10.068;2022-11-15T16:15:14;37.85;;;21.75;;
39880;SDS011;25554;44.954;10.068;2022-11-15T16:17:43;37.40;;;21.08;;
39880;SDS011;25554;44.954;10.068;2022-11-15T16:20:56;37.45;;;21.05;;
39880;SDS011;25554;44.954;10.068;2022-11-15T16:22:57;40.28;;;21.25;;
39880;SDS011;25554;44.954;10.068;2022-11-15T16:25:24;41.42;;;22.40;;
39880;SDS011;25554;44.954;10.068;2022-11-15T16:27:51;45.28;;;22.88;;
39880;SDS011;25554;44.954;10.068;2022-11-15T16:32:44;43.70;;;21.02;;
39880;SDS011;25554;44.954;10.068;2022-11-15T16:37:38;42.90;;;22.05;;
39880;SDS011;25554;44.954;10.068;2022-11-15T16:40:28;42.08;;;21.73;;
39880;SDS011;25554;44.954;10.068;2022-11-15T16:42:56;41.00;;;22.33;;
39880;SDS011;25554;44.954;10.068;2022-11-15T16:45:23;39.75;;;21.75;;
39880;SDS011;25554;44.954;10.068;2022-11-15T16:47:49;42.33;;;21.75;;
39880;SDS011;25554;44.954;10.068;2022-11-15T16:52:42;40.45;;;21.42;;
39880;SDS011;25554;44.954;10.068;2022-11-15T16:55:09;42.65;;;22.30;;
39880;SDS011;25554;44.954;10.068;2022-11-15T17:00:02;37.97;;;20.15;;
39880;SDS011;25554;44.954;10.068;2022-11-15T17:02:29;37.95;;;19.75;;
39880;SDS011;25554;44.954;10.068;2022-11-15T17:07:22;39.20;;;20.40;;
39880;SDS011;25554;44.954;10.068;2022-11-15T17:09:49;39.13;;;22.05;;
39880;SDS011;25554;44.954;10.068;2022-11-15T17:14:42;43.65;;;22.27;;
39880;SDS011;25554;44.954;10.068;2022-11-15T17:17:11;42.22;;;22.98;;
39880;SDS011;25554;44.954;10.068;2022-11-15T17:22:04;41.53;;;22.17;;
39880;SDS011;25554;44.954;10.068;2022-11-15T17:24:30;43.75;;;22.48;;
39880;SDS011;25554;44.954;10.068;2022-11-15T17:26:57;43.35;;;22.30;;
39880;SDS011;25554;44.954;10.068;2022-11-15T17:31:50;42.13;;;22.23;;
39880;SDS011;25554;44.954;10.068;2022-11-15T17:36:42;45.22;;;22.52;;
39880;SDS011;25554;44.954;10.068;2022-11-15T17:41:35;43.75;;;23.98;;
39880;SDS011;25554;44.954;10.068;2022-11-15T17:46:28;40.33;;;21.73;;
39880;SDS011;25554;44.954;10.068;2022-11-15T17:48:54;38.15;;;20.90;;
39880;SDS011;25554;44.954;10.068;2022-11-15T17:51:21;44.28;;;22.90;;
39880;SDS011;25554;44.954;10.068;2022-11-15T17:53:48;42.13;;;21.80;;
39880;SDS011;25554;44.954;10.068;2022-11-15T17:56:16;43.33;;;23.08;;
39880;SDS011;25554;44.954;10.068;2022-11-15T17:58:47;46.65;;;24.48;;
39880;SDS011;25554;44.954;10.068;2022-11-15T18:06:06;43.67;;;24.23;;
39880;SDS011;25554;44.954;10.068;2022-11-15T18:08:37;45.05;;;24.85;;
39880;SDS011;25554;44.954;10.068;2022-11-15T18:15:57;39.05;;;20.73;;
39880;SDS011;25554;44.954;10.068;2022-11-15T18:18:27;40.92;;;21.42;;
39880;SDS011;25554;44.954;10.068;2022-11-15T18:23:37;42.65;;;22.98;;
39880;SDS011;25554;44.954;10.068;2022-11-15T18:26:05;39.28;;;21.48;;
39880;SDS011;25554;44.954;10.068;2022-11-15T18:28:32;42.70;;;23.38;;
39880;SDS011;25554;44.954;10.068;2022-11-15T18:31:00;38.80;;;21.63;;
39880;SDS011;25554;44.954;10.068;2022-11-15T18:33:27;37.85;;;20.05;;
39880;SDS011;25554;44.954;10.068;2022-11-15T18:36:02;35.67;;;21.17;;
39880;SDS011;25554;44.954;10.068;2022-11-15T18:38:28;36.88;;;22.10;;
39880;SDS011;25554;44.954;10.068;2022-11-15T18:41:05;37.92;;;21.20;;
39880;SDS011;25554;44.954;10.068;2022-11-15T18:43:32;33.50;;;21.40;;
39880;SDS011;25554;44.954;10.068;2022-11-15T18:48:27;34.65;;;19.83;;
39880;SDS011;25554;44.954;10.068;2022-11-15T18:50:58;37.70;;;21.38;;
39880;SDS011;25554;44.954;10.068;2022-11-15T18:53:25;35.08;;;20.40;;
39880;SDS011;25554;44.954;10.068;2022-11-15T18:58:18;31.35;;;19.60;;
39880;SDS011;25554;44.954;10.068;2022-11-15T19:03:10;32.22;;;19.55;;
39880;SDS011;25554;44.954;10.068;2022-11-15T19:08:03;33.83;;;19.60;;
39880;SDS011;25554;44.954;10.068;2022-11-15T19:12:56;32.53;;;20.80;;
39880;SDS011;25554;44.954;10.068;2022-11-15T19:17:49;43.85;;;23.38;;